Hovedside
METAR-TAF:

METAR-TAF

Lufthavner :

Vamdrup

Kolding, Danmark

breddegrad: 55-26N, lengdegrad: 009-20E, høyde over havet: 44 m

Gjeldene værobservasjon

Denne rapporten ble laget for 29 minutter siden, klokken 11:50 UTC
Vind 6 kt fra Sør-sørvest
Temperatur 6°C
Luftfuktighet 87%
Trykk 1012 hPa
Sikt 10 km eller mer
Få skyer i en høyde av 2000 ft
Brutte skyer i en høyde av 15000 ft

METAR: EKVD 241150Z 21006KT 9999 FEW020 BKN150 06/04 Q1012

Tid: 13:19 (12:19 UTC)

Varsel

Denne rapporten ble laget for 21 minutter siden, klokken 11:58 UTC
Varsel gyldig fra 24. klokken 12 UTC til 24. klokken 17 UTC
Vind 8 kt fra Sør
Sikt 10 km eller mer
Spredte skyer i en høyde av 1500 ft
Blir
fra 24. klokken 15 UTC til 24. klokken 17 UTC
Vind 15 kt fra Sørøst
Sikt: 4000 m
Brutte skyer i en høyde av 800 ft
lett regn, duskregn

TAF: EKVD 241158Z 2412/2417 19008KT 9999 SCT015 BECMG 2415/2417 14015KT 4000 -RADZ BKN008

Værobservasjoner og værvarsel for over 4000 flyplasser (METAR- og TAF-rapporter).

Tilgjengelige stasjoner er representert av de røde og gule prikkene på kartet.

Hold musepekeren over prikken for å se navnet på stasjonen.

Klikk så for å se værobservasjoner og -varsler.

For å forandre kartet kan du klikke på den grønne knappen med svart kryss for å zoome inn, på den grønne knappen med strek for å zoome ut, eller på de grønne pilene for å se tilstøtende kart.


METAR-TAF: